Time;durP1;ratioP1;P1;durP2;ratioP2;P2;SDS_P1;SDS_P2;PMS_P1;PMS_P2;Temp;Humidity;BMP_temperature;BMP_pressure;BME280_temperature;BME280_humidity;BME280_pressure;Samples;Min_cycle;Max_cycle;Signal;HPM_P1;HPM_P2
2022/09/02 05:55:05;;;;;;;11.00;4.97;;;19.60;99.90;;;;;;6180665;23;20214;-94
2022/09/02 06:13:14;;;;;;;17.07;5.63;;;19.90;99.90;;;;;;6170892;23;20203;-91
2022/09/02 06:27:12;;;;;;;12.90;4.80;;;20.50;99.90;;;;;;6171673;23;20198;-93
2022/09/02 06:30:47;;;;;;;16.17;5.50;;;20.50;99.90;;;;;;6177408;23;20165;-92
2022/09/02 06:37:31;;;;;;;14.60;5.40;;;20.60;99.90;;;;;;6057785;23;20166;-93
2022/09/02 06:51:04;;;;;;;;;;;;;;;;;;;;;
2022/09/02 06:54:31;;;;;;;4.43;3.60;;;20.60;99.90;;;;;;6072362;23;20230;-93
2022/09/02 07:16:12;;;;;;;7.70;3.80;;;21.30;1.00;;;;;;6036607;23;20247;-93
2022/09/02 07:33:04;;;;;;;7.13;3.40;;;21.60;1.00;;;;;;6028536;23;20300;-93
2022/09/02 08:21:39;;;;;;;;;;;;;;;;;;;;;
2022/09/02 08:27:27;;;;;;;5.80;3.57;;;23.80;1.00;;;;;;6099196;23;20167;-94
2022/09/02 08:30:11;;;;;;;4.93;3.10;;;23.80;1.00;;;;;;6122379;23;20199;-91
2022/09/02 08:32:45;;;;;;;5.20;3.10;;;23.50;1.00;;;;;;6124962;23;20207;-92
2022/09/02 08:35:11;;;;;;;7.63;3.30;;;23.60;1.00;;;;;;6117954;23;20153;-92
2022/09/02 08:37:37;;;;;;;5.63;3.13;;;23.80;5.40;;;;;;6116643;23;20147;-93
2022/09/02 08:40:09;;;;;;;8.33;3.80;;;24.00;1.00;;;;;;6090298;23;20236;-92
2022/09/02 08:42:46;;;;;;;5.83;3.30;;;24.20;99.90;;;;;;6141673;23;20234;-92
2022/09/02 08:45:38;;;;;;;12.13;3.60;;;24.30;1.00;;;;;;6118875;23;20239;-91
2022/09/02 08:48:15;;;;;;;5.27;3.17;;;24.50;1.00;;;;;;6129048;23;20174;-92
2022/09/02 08:50:45;;;;;;;6.83;3.37;;;24.50;1.00;;;;;;6126882;23;20552;-93
2022/09/02 08:53:31;;;;;;;4.37;3.03;;;24.50;99.90;;;;;;6096635;23;20200;-92
2022/09/02 08:56:16;;;;;;;5.47;3.53;;;24.50;99.90;;;;;;6137988;23;20214;-92
2022/09/02 08:58:51;;;;;;;9.47;3.43;;;24.50;1.00;;;;;;6112654;23;20174;-91
2022/09/02 09:01:44;;;;;;;6.13;3.73;;;24.50;1.00;;;;;;6115333;23;20178;-93
2022/09/02 09:04:52;;;;;;;11.87;4.23;;;24.60;57.90;;;;;;6112915;23;20166;-92
2022/09/02 09:07:50;;;;;;;7.20;3.63;;;24.50;99.90;;;;;;6138789;23;20159;-91
2022/09/02 09:10:23;;;;;;;8.73;3.27;;;24.70;99.90;;;;;;6115724;23;20147;-91
2022/09/02 09:13:11;;;;;;;4.97;3.10;;;24.80;1.00;;;;;;6123297;23;20179;-92
2022/09/02 09:16:15;;;;;;;5.40;3.10;;;25.10;91.50;;;;;;6143798;23;20194;-93
2022/09/02 09:19:02;;;;;;;7.20;3.37;;;24.80;1.00;;;;;;6138946;23;20161;-93
2022/09/02 09:21:30;;;;;;;6.53;3.30;;;24.90;91.40;;;;;;6115801;23;20162;-93
2022/09/02 09:24:01;;;;;;;6.60;3.20;;;25.20;1.00;;;;;;6148274;23;20124;-93
2022/09/02 09:26:37;;;;;;;6.37;3.23;;;25.40;1.00;;;;;;6128843;23;20199;-92
2022/09/02 09:29:04;;;;;;;7.40;3.10;;;25.40;1.00;;;;;;6121659;23;20178;-93
2022/09/02 09:31:34;;;;;;;6.40;3.23;;;25.60;1.00;;;;;;6097989;23;20183;-92
2022/09/02 09:34:06;;;;;;;9.23;3.80;;;25.80;99.90;;;;;;6119480;23;20178;-92
2022/09/02 09:36:47;;;;;;;4.10;3.00;;;25.90;99.90;;;;;;6117988;23;20144;-93
2022/09/02 09:39:45;;;;;;;11.30;3.30;;;26.00;1.00;;;;;;6116303;23;20157;-94
2022/09/02 09:42:33;;;;;;;6.43;2.97;;;26.00;1.00;;;;;;6120184;23;20143;-92
2022/09/02 09:44:59;;;;;;;6.07;3.27;;;26.10;99.90;;;;;;6123380;23;20194;-93
2022/09/02 09:47:28;;;;;;;4.20;2.80;;;26.00;99.90;;;;;;6119735;23;20173;-92
2022/09/02 09:50:18;;;;;;;5.43;3.03;;;25.80;1.00;;;;;;6097755;23;20151;-92
2022/09/02 09:52:46;;;;;;;5.20;3.00;;;25.80;1.00;;;;;;6105345;23;20167;-93
2022/09/02 09:55:23;;;;;;;7.47;3.40;;;26.20;99.90;;;;;;6153281;23;20195;-93
2022/09/02 09:57:49;;;;;;;6.27;3.03;;;26.40;99.90;;;;;;6104760;23;20165;-92
2022/09/02 10:00:30;;;;;;;8.00;3.03;;;26.40;1.00;;;;;;6124322;23;20174;-93
2022/09/02 10:03:03;;;;;;;10.55;2.80;;;26.50;1.00;;;;;;6093732;23;20176;-94
2022/09/02 10:05:39;;;;;;;5.00;2.93;;;26.70;1.00;;;;;;6118605;23;20211;-94
2022/09/02 10:08:17;;;;;;;7.63;3.08;;;26.80;1.00;;;;;;6146635;23;20166;-95
2022/09/02 10:11:05;;;;;;;8.15;2.72;;;26.90;99.90;;;;;;6126417;23;20145;-95
2022/09/02 10:13:37;;;;;;;4.32;2.33;;;26.80;99.90;;;;;;6126493;23;20174;-95
2022/09/02 10:16:41;;;;;;;5.57;3.10;;;27.00;99.90;;;;;;6125253;23;20148;-92
2022/09/02 10:19:33;;;;;;;5.05;2.70;;;27.10;1.00;;;;;;6077318;23;20134;-95
2022/09/02 10:22:47;;;;;;;5.82;3.08;;;27.20;1.00;;;;;;6119132;23;20150;-96
2022/09/02 10:25:29;;;;;;;7.17;3.07;;;27.10;1.00;;;;;;6097468;23;20155;-96
2022/09/02 10:28:19;;;;;;;4.72;3.00;;;27.10;1.00;;;;;;6122093;23;20201;-92
2022/09/02 10:31:13;;;;;;;4.35;2.60;;;27.30;1.00;;;;;;6149889;23;20162;-96
2022/09/02 10:34:04;;;;;;;6.25;3.00;;;27.40;1.00;;;;;;6117950;23;20300;-96
2022/09/02 10:37:08;;;;;;;4.10;2.75;;;26.90;1.00;;;;;;6121401;23;20151;-95
2022/09/02 10:39:58;;;;;;;8.07;3.20;;;26.30;34.40;;;;;;6121748;23;20238;-95
2022/09/02 10:42:33;;;;;;;4.93;2.87;;;25.90;99.90;;;;;;6116357;23;20150;-96
2022/09/02 10:45:05;;;;;;;3.70;3.17;;;25.80;1.00;;;;;;6112179;23;20178;-94
2022/09/02 10:47:39;;;;;;;3.73;2.87;;;25.80;1.00;;;;;;6113936;23;20167;-96
2022/09/02 10:50:24;;;;;;;4.60;2.50;;;25.90;1.00;;;;;;6089733;23;20187;-96
2022/09/02 10:53:00;;;;;;;14.80;3.10;;;25.90;1.00;;;;;;6140307;23;20183;-95
2022/09/02 10:55:44;;;;;;;3.80;3.00;;;26.00;99.90;;;;;;6111532;23;20242;-95
2022/09/02 10:58:18;;;;;;;7.77;2.80;;;26.20;99.90;;;;;;6115210;23;20155;-95
2022/09/02 11:00:50;;;;;;;3.80;2.70;;;26.30;99.90;;;;;;6115409;23;20157;-96
2022/09/02 11:03:34;;;;;;;5.20;2.77;;;26.70;1.00;;;;;;6115008;23;20213;-95
2022/09/02 11:06:10;;;;;;;2.73;2.40;;;26.60;1.00;;;;;;6115111;23;20154;-95
2022/09/02 11:08:49;;;;;;;3.83;2.97;;;26.50;1.00;;;;;;6114057;23;20460;-96
2022/09/02 11:11:44;;;;;;;4.70;2.67;;;26.70;1.00;;;;;;6112448;23;20150;-96
2022/09/02 11:14:40;;;;;;;5.07;2.70;;;26.70;1.00;;;;;;6139059;23;20162;-94
2022/09/02 11:17:46;;;;;;;4.87;2.70;;;26.60;1.00;;;;;;6154701;23;20173;-95
2022/09/02 11:20:42;;;;;;;5.90;2.70;;;26.80;1.00;;;;;;6129452;23;20229;-94
2022/09/02 11:23:29;;;;;;;3.22;2.47;;;27.00;1.00;;;;;;6145080;23;20241;-96
2022/09/02 11:26:22;;;;;;;5.07;2.70;;;27.00;99.90;;;;;;6112716;23;20183;-95
2022/09/02 11:29:01;;;;;;;6.38;2.65;;;27.10;99.90;;;;;;6111307;23;20193;-96
2022/09/02 11:31:32;;;;;;;4.90;2.93;;;27.30;99.90;;;;;;6111225;23;20212;-96
2022/09/02 11:34:13;;;;;;;4.35;2.60;;;27.20;99.90;;;;;;6113903;23;20158;-95
2022/09/02 11:36:40;;;;;;;7.63;2.80;;;27.10;99.90;;;;;;6129945;23;20131;-95
2022/09/02 11:39:16;;;;;;;5.20;2.38;;;26.90;99.90;;;;;;6129521;23;20163;-96
2022/09/02 11:41:59;;;;;;;6.70;2.30;;;26.80;99.90;;;;;;6128732;23;20163;-95
2022/09/02 11:48:13;;;;;;;4.53;2.37;;;26.60;99.90;;;;;;6155382;23;20194;-96
2022/09/02 11:50:58;;;;;;;4.80;2.67;;;26.60;99.90;;;;;;6154267;23;20155;-95
2022/09/02 11:53:50;;;;;;;4.37;2.70;;;27.00;99.90;;;;;;6128831;23;20182;-96
2022/09/02 11:56:19;;;;;;;4.50;2.30;;;27.20;41.20;;;;;;6128724;23;20151;-95
2022/09/02 11:58:51;;;;;;;6.27;2.40;;;27.00;1.00;;;;;;6129940;23;20155;-96
2022/09/02 12:01:56;;;;;;;6.10;2.73;;;26.90;1.00;;;;;;6129970;23;20136;-96
2022/09/02 12:04:28;;;;;;;6.20;2.38;;;27.10;1.00;;;;;;6128832;23;20158;-95
2022/09/02 12:07:07;;;;;;;5.03;2.10;;;27.20;1.00;;;;;;6131720;23;20174;-96
2022/09/02 12:09:48;;;;;;;6.37;2.13;;;27.10;1.00;;;;;;6152608;23;20145;-95
2022/09/02 12:12:35;;;;;;;2.97;2.20;;;27.10;1.00;;;;;;6123298;23;20208;-93
2022/09/02 12:15:13;;;;;;;6.32;2.25;;;27.10;1.00;;;;;;6129728;23;20134;-93
2022/09/02 12:17:48;;;;;;;5.63;2.23;;;27.20;1.00;;;;;;6129853;23;20150;-95
2022/09/02 12:20:40;;;;;;;4.07;2.03;;;27.50;1.00;;;;;;6129855;23;20127;-95
2022/09/02 12:23:30;;;;;;;2.97;1.80;;;27.70;1.00;;;;;;6128901;23;20154;-95
2022/09/02 12:26:00;;;;;;;3.60;2.00;;;27.80;99.90;;;;;;6127463;23;20139;-95
2022/09/02 12:28:30;;;;;;;2.27;1.90;;;27.80;99.90;;;;;;6128998;23;20142;-95
2022/09/02 12:31:07;;;;;;;3.95;2.13;;;27.60;99.90;;;;;;6154635;23;20141;-94
2022/09/02 12:33:40;;;;;;;7.97;3.65;;;27.60;99.90;;;;;;6129440;23;20208;-94
2022/09/02 12:36:07;;;;;;;7.43;3.70;;;28.10;99.90;;;;;;6128832;23;20190;-93
2022/09/02 12:38:47;;;;;;;14.50;7.15;;;28.40;99.90;;;;;;6168298;23;20853;-92
2022/09/02 12:41:26;;;;;;;7.50;2.03;;;28.70;99.90;;;;;;6127074;23;20181;-94
2022/09/02 12:43:56;;;;;;;4.68;2.17;;;28.20;99.90;;;;;;6135839;23;20195;-94
2022/09/02 12:46:36;;;;;;;2.90;2.05;;;27.90;99.90;;;;;;6128034;23;20150;-95
2022/09/02 12:49:20;;;;;;;3.22;1.90;;;27.70;99.90;;;;;;6127713;23;20167;-94
2022/09/02 12:52:01;;;;;;;2.25;1.80;;;27.60;99.90;;;;;;6129059;23;20162;-94
2022/09/02 12:54:29;;;;;;;10.45;2.90;;;27.50;99.90;;;;;;6128411;23;20139;-95
2022/09/02 12:56:55;;;;;;;8.15;3.90;;;27.70;99.90;;;;;;6128510;23;20143;-93
2022/09/02 12:59:48;;;;;;;6.72;3.22;;;28.00;99.90;;;;;;6127889;23;20205;-94
2022/09/02 13:02:49;;;;;;;6.63;2.60;;;28.40;99.90;;;;;;6148656;23;20158;-93
2022/09/02 13:05:22;;;;;;;3.80;2.35;;;28.80;99.90;;;;;;6127813;23;20239;-95
2022/09/02 13:08:19;;;;;;;5.07;2.30;;;29.00;99.90;;;;;;6128756;23;20153;-94
2022/09/02 13:10:54;;;;;;;6.05;2.03;;;29.00;73.10;;;;;;6153162;23;20178;-95
2022/09/02 13:13:51;;;;;;;5.10;2.47;;;28.80;56.10;;;;;;6126263;23;20205;-94
2022/09/02 13:22:15;;;;;;;5.40;2.20;;;29.60;11.40;;;;;;6130946;23;20213;-94
2022/09/02 13:25:14;;;;;;;3.72;2.20;;;29.00;1.00;;;;;;6182896;23;20127;-95
2022/09/02 13:27:59;;;;;;;8.20;2.80;;;29.30;1.00;;;;;;6122941;23;20134;-91
2022/09/02 13:30:37;;;;;;;2.92;2.00;;;29.70;1.00;;;;;;6122898;23;20660;-95
2022/09/02 13:33:08;;;;;;;3.17;1.95;;;29.50;1.00;;;;;;6096656;23;20209;-93
2022/09/02 13:35:39;;;;;;;3.30;2.03;;;29.10;1.00;;;;;;6120754;23;20155;-93
2022/09/02 13:38:12;;;;;;;6.22;2.10;;;29.30;1.00;;;;;;6119026;23;20144;-95
2022/09/02 13:40:42;;;;;;;5.05;2.17;;;29.50;1.00;;;;;;6090513;23;20581;-94
2022/09/02 13:43:19;;;;;;;7.38;2.10;;;29.40;1.00;;;;;;6099151;23;20155;-93
2022/09/02 13:45:49;;;;;;;4.65;1.80;;;29.60;1.00;;;;;;6124442;23;20140;-95
2022/09/02 13:48:25;;;;;;;3.67;2.00;;;29.90;1.00;;;;;;6099553;23;20183;-96
2022/09/02 13:50:57;;;;;;;3.50;1.70;;;30.00;1.00;;;;;;6068968;23;20188;-95
2022/09/02 13:53:50;;;;;;;5.85;2.83;;;30.10;1.00;;;;;;6061224;23;20172;-94
2022/09/02 13:56:23;;;;;;;4.78;4.00;;;30.10;1.00;;;;;;6066685;23;20152;-95
2022/09/02 13:58:57;;;;;;;5.68;2.80;;;30.10;1.00;;;;;;6082785;23;20186;-95
2022/09/02 14:01:32;;;;;;;4.68;2.20;;;30.20;1.00;;;;;;6055303;23;20163;-96
2022/09/02 14:04:19;;;;;;;2.22;1.80;;;30.30;1.00;;;;;;6065650;23;20184;-94
2022/09/02 14:09:41;;;;;;;4.47;3.40;;;30.80;1.00;;;;;;6122227;23;20208;-96
2022/09/02 14:12:32;;;;;;;5.40;2.20;;;30.70;1.00;;;;;;6090927;23;20273;-96
2022/09/02 14:15:00;;;;;;;3.55;1.75;;;30.40;1.00;;;;;;6058437;23;20184;-95
2022/09/02 14:18:19;;;;;;;;;;;;;;;;;;;;;
2022/09/02 14:21:08;;;;;;;4.25;1.90;;;29.70;1.00;;;;;;6118121;23;20132;-94
2022/09/02 14:23:45;;;;;;;3.38;2.10;;;30.20;1.00;;;;;;6097553;23;20159;-94
2022/09/02 14:26:33;;;;;;;2.80;1.70;;;30.60;1.00;;;;;;6096531;23;20152;-95
2022/09/02 14:28:59;;;;;;;3.90;1.60;;;30.60;1.00;;;;;;6083196;23;20158;-96
2022/09/02 14:31:32;;;;;;;5.05;1.70;;;30.80;1.00;;;;;;6082409;23;20242;-94
2022/09/02 14:34:43;;;;;;;9.25;5.85;;;31.00;1.00;;;;;;6081716;23;20160;-94
2022/09/02 14:37:17;;;;;;;4.13;2.38;;;31.20;1.00;;;;;;6109321;23;20167;-95
2022/09/02 14:39:59;;;;;;;2.92;1.65;;;31.30;1.00;;;;;;6118519;23;20142;-94
2022/09/02 14:42:26;;;;;;;40.15;5.00;;;31.40;1.00;;;;;;6125636;23;20159;-92
2022/09/02 14:55:52;;;;;;;3.03;1.67;;;30.30;1.00;;;;;;6148606;23;20259;-95
2022/09/02 14:58:25;;;;;;;2.33;1.60;;;30.60;1.00;;;;;;6135693;23;20157;-96
2022/09/02 15:00:54;;;;;;;3.47;1.73;;;30.10;1.00;;;;;;6155715;23;20217;-96
2022/09/02 15:04:00;;;;;;;2.85;1.50;;;29.40;1.00;;;;;;6155995;23;20166;-96
2022/09/02 15:06:47;;;;;;;2.20;1.60;;;29.20;1.00;;;;;;6152781;23;20142;-96
2022/09/02 15:09:26;;;;;;;2.05;1.30;;;29.20;1.00;;;;;;6124609;23;20158;-94
2022/09/02 15:11:53;;;;;;;3.67;1.63;;;29.50;1.00;;;;;;6169528;23;20221;-95
2022/09/02 15:14:39;;;;;;;6.78;1.77;;;29.40;1.00;;;;;;6121943;23;20301;-95
2022/09/02 15:17:09;;;;;;;4.25;1.80;;;29.20;1.00;;;;;;6144401;23;20154;-95
2022/09/02 15:19:35;;;;;;;4.22;2.00;;;29.20;1.00;;;;;;6143852;23;20162;-94
2022/09/02 15:22:21;;;;;;;4.35;1.67;;;29.40;1.00;;;;;;6119052;23;20218;-96
2022/09/02 15:24:49;;;;;;;7.53;1.88;;;29.60;1.00;;;;;;6171312;23;20646;-96
2022/09/02 15:27:59;;;;;;;2.75;1.30;;;29.80;1.00;;;;;;6146501;23;20143;-94
2022/09/02 15:30:25;;;;;;;3.53;1.55;;;29.40;1.00;;;;;;6166416;23;20155;-95
2022/09/02 15:32:56;;;;;;;4.18;1.80;;;29.20;1.00;;;;;;6124975;23;20205;-94
2022/09/02 15:35:23;;;;;;;3.60;1.63;;;29.00;1.00;;;;;;6142919;23;20165;-93
2022/09/02 15:38:02;;;;;;;4.13;1.83;;;29.00;1.00;;;;;;6142040;23;20161;-92
2022/09/02 15:40:31;;;;;;;3.40;1.70;;;29.20;1.00;;;;;;6145121;23;20150;-95
2022/09/02 15:43:01;;;;;;;5.93;1.83;;;29.00;1.00;;;;;;6097113;23;20164;-95
2022/09/02 15:45:27;;;;;;;6.18;2.10;;;29.00;1.00;;;;;;6142780;23;20146;-86
2022/09/02 15:47:58;;;;;;;2.75;1.60;;;29.00;1.00;;;;;;6140200;23;20185;-96
2022/09/02 15:50:26;;;;;;;4.13;1.67;;;29.00;1.00;;;;;;6137089;23;20147;-92
2022/09/02 15:52:54;;;;;;;5.60;1.85;;;29.20;1.00;;;;;;6141477;23;20241;-92
2022/09/02 15:55:21;;;;;;;2.90;1.60;;;29.30;1.00;;;;;;6137702;23;20170;-96
2022/09/02 15:57:48;;;;;;;4.68;1.90;;;29.10;1.00;;;;;;6124087;23;20166;-94
2022/09/02 16:00:17;;;;;;;2.85;1.83;;;28.90;1.00;;;;;;6105147;23;20135;-96
2022/09/02 16:02:45;;;;;;;3.05;1.63;;;29.10;1.00;;;;;;6155422;23;20146;-96
2022/09/02 16:05:11;;;;;;;5.88;1.60;;;29.00;1.00;;;;;;6180176;23;20158;-96
2022/09/02 16:07:39;;;;;;;4.72;1.60;;;29.00;1.00;;;;;;6156721;23;20225;-95
2022/09/02 16:10:11;;;;;;;5.47;2.15;;;29.10;1.00;;;;;;6154974;23;20154;-96
2022/09/02 16:12:38;;;;;;;4.45;1.85;;;29.40;1.00;;;;;;6152191;23;20220;-96
2022/09/02 16:15:07;;;;;;;3.63;1.80;;;29.40;1.00;;;;;;6154096;23;20150;-96
2022/09/02 16:17:34;;;;;;;2.45;1.80;;;29.50;1.00;;;;;;6155229;23;20139;-96
2022/09/02 16:20:02;;;;;;;3.65;1.70;;;29.50;1.00;;;;;;6152361;23;20162;-96
2022/09/02 16:22:37;;;;;;;2.10;1.50;;;29.10;1.00;;;;;;6157242;23;20139;-96
2022/09/02 16:25:04;;;;;;;2.78;1.60;;;28.90;1.00;;;;;;6140550;23;20190;-96
2022/09/02 16:30:17;;;;;;;2.97;1.50;;;28.80;1.00;;;;;;6154096;23;20191;-96
2022/09/02 16:32:46;;;;;;;3.97;1.70;;;29.10;1.00;;;;;;6123724;23;20194;-93
2022/09/02 16:35:15;;;;;;;3.08;1.55;;;29.20;1.00;;;;;;6123917;23;20262;-94
2022/09/02 16:37:41;;;;;;;5.87;1.97;;;29.20;1.00;;;;;;5952388;23;4087735;-92
2022/09/02 16:40:10;;;;;;;3.85;1.40;;;28.80;1.00;;;;;;6133414;23;20175;-96
2022/09/02 16:42:36;;;;;;;2.92;1.60;;;28.90;1.00;;;;;;6145828;23;20279;-95
2022/09/02 16:45:05;;;;;;;3.58;2.10;;;28.70;1.00;;;;;;6095318;23;20210;-96
2022/09/02 16:47:34;;;;;;;7.50;2.15;;;28.60;1.00;;;;;;6124668;23;20144;-95
2022/09/02 16:50:05;;;;;;;7.10;2.03;;;28.60;1.00;;;;;;6108256;23;20258;-96
2022/09/02 16:52:35;;;;;;;3.13;2.10;;;28.70;1.00;;;;;;6130394;23;20143;-96
2022/09/02 17:00:09;;;;;;;7.27;3.07;;;28.20;1.00;;;;;;6120935;23;20190;-95
2022/09/02 17:05:30;;;;;;;2.88;1.95;;;28.30;1.00;;;;;;6154447;23;20181;-96
2022/09/02 17:08:00;;;;;;;4.07;2.05;;;28.50;1.00;;;;;;6133547;23;20191;-96
2022/09/02 17:10:35;;;;;;;9.45;2.50;;;28.50;1.00;;;;;;6129860;23;20186;-94
2022/09/02 17:13:04;;;;;;;5.05;2.00;;;28.40;1.00;;;;;;6128975;23;20196;-96
2022/09/02 17:15:35;;;;;;;3.88;1.42;;;28.40;1.00;;;;;;6128338;23;20214;-96
2022/09/02 17:21:28;;;;;;;12.38;2.53;;;28.50;1.00;;;;;;6112542;23;20172;-96
2022/09/02 17:23:54;;;;;;;9.73;3.13;;;28.50;1.00;;;;;;6090998;23;20219;-95
2022/09/02 17:26:25;;;;;;;5.38;2.47;;;28.50;1.00;;;;;;6099358;23;20156;-96
2022/09/02 17:28:57;;;;;;;8.45;1.83;;;28.40;1.00;;;;;;6124282;23;20136;-96
2022/09/02 17:31:32;;;;;;;7.43;2.47;;;28.40;1.00;;;;;;6124676;23;20145;-94
2022/09/02 17:34:00;;;;;;;10.73;2.35;;;28.50;1.00;;;;;;6098090;23;20199;-96
2022/09/02 17:36:31;;;;;;;7.18;2.45;;;28.30;1.00;;;;;;6089728;23;20240;-96
2022/09/02 17:39:01;;;;;;;6.50;2.28;;;28.10;1.00;;;;;;6084498;23;20206;-96
2022/09/02 17:41:53;;;;;;;16.65;3.58;;;28.10;1.00;;;;;;6088091;23;20152;-96
2022/09/02 17:44:37;;;;;;;8.98;3.33;;;28.00;1.00;;;;;;6092501;23;20184;-94
2022/09/02 17:47:30;;;;;;;12.43;4.13;;;28.00;1.00;;;;;;6040448;23;20160;-95
2022/09/02 17:58:01;;;;;;;9.13;3.10;;;28.10;1.00;;;;;;6142059;23;20203;-96
2022/09/02 18:00:58;;;;;;;7.75;3.28;;;27.90;1.00;;;;;;6169560;23;20193;-96
2022/09/02 18:03:54;;;;;;;9.48;2.65;;;27.80;1.00;;;;;;6147284;23;20177;-96
2022/09/02 18:06:33;;;;;;;13.20;3.05;;;27.60;1.00;;;;;;6175873;23;20235;-96
2022/09/02 18:09:32;;;;;;;5.53;2.15;;;27.50;1.00;;;;;;6146508;23;20157;-96
2022/09/02 18:11:59;;;;;;;7.57;2.73;;;27.30;1.00;;;;;;6144988;23;20186;-96
2022/09/02 18:14:34;;;;;;;6.43;2.67;;;27.10;1.00;;;;;;6121184;23;20586;-95
2022/09/02 18:17:19;;;;;;;6.45;3.15;;;27.10;1.00;;;;;;6151170;23;20148;-96
2022/09/02 18:20:39;;;;;;;;;;;;;;;;;;;;;
2022/09/02 18:24:07;;;;;;;4.50;2.40;;;27.20;1.00;;;;;;6179070;23;20142;-96
2022/09/02 18:26:51;;;;;;;5.13;2.93;;;26.70;51.50;;;;;;6039300;23;20180;-95
2022/09/02 18:30:00;;;;;;;5.70;3.20;;;26.50;1.00;;;;;;6041123;23;20325;-96
2022/09/02 18:32:53;;;;;;;8.50;4.53;;;26.00;1.00;;;;;;6061202;23;20193;-96
2022/09/02 18:36:09;;;;;;;5.43;3.00;;;25.80;99.90;;;;;;6055618;23;20227;-96
2022/09/02 18:42:39;;;;;;;8.33;3.47;;;25.50;38.00;;;;;;6048063;23;20232;-96
2022/09/02 18:45:20;;;;;;;5.00;3.00;;;25.40;1.00;;;;;;6073943;23;20169;-96
2022/09/02 18:48:15;;;;;;;5.87;3.83;;;25.10;1.00;;;;;;6126885;23;20222;-96
2022/09/02 18:51:02;;;;;;;5.77;3.53;;;24.70;96.80;;;;;;6150680;23;20143;-96
2022/09/02 18:53:58;;;;;;;5.23;3.60;;;24.70;1.00;;;;;;6140544;23;20182;-96
2022/09/02 18:56:42;;;;;;;7.10;3.20;;;24.70;14.70;;;;;;6144812;23;20272;-96
2022/09/02 18:59:17;;;;;;;5.53;3.37;;;24.80;1.00;;;;;;6168692;23;20158;-95
2022/09/02 19:05:27;;;;;;;6.30;3.40;;;25.00;99.90;;;;;;6169467;23;20145;-95
2022/09/02 19:08:36;;;;;;;6.63;3.50;;;24.90;99.90;;;;;;6143676;23;20179;-95
2022/09/02 19:11:07;;;;;;;6.20;3.43;;;24.80;1.00;;;;;;6147470;23;20657;-96
2022/09/02 19:13:59;;;;;;;5.53;3.10;;;24.80;50.10;;;;;;6145342;23;20217;-95
2022/09/02 19:16:38;;;;;;;7.77;3.80;;;24.80;1.00;;;;;;6175999;23;20198;-96
2022/09/02 19:19:09;;;;;;;6.60;3.40;;;24.70;28.40;;;;;;6178168;23;20202;-95
2022/09/02 19:21:48;;;;;;;5.90;3.87;;;24.50;1.00;;;;;;6128965;23;20174;-95
2022/09/02 19:24:42;;;;;;;5.77;3.30;;;24.70;99.90;;;;;;6179960;23;20138;-96
2022/09/02 19:27:21;;;;;;;8.63;3.30;;;24.70;1.00;;;;;;6140288;23;20246;-96
2022/09/02 19:30:00;;;;;;;5.33;3.10;;;24.70;74.20;;;;;;6180327;23;20165;-95
2022/09/02 19:32:41;;;;;;;5.77;3.57;;;24.50;1.00;;;;;;6125016;23;20206;-95
2022/09/02 19:35:17;;;;;;;6.27;3.80;;;24.40;4.70;;;;;;6124431;23;20253;-95
2022/09/02 19:37:47;;;;;;;6.87;3.50;;;24.50;1.00;;;;;;6105162;23;20222;-96
2022/09/02 19:40:35;;;;;;;5.77;3.70;;;24.40;32.00;;;;;;6116188;23;20190;-93
2022/09/02 19:43:04;;;;;;;5.93;4.00;;;24.40;99.90;;;;;;6104427;23;21067;-93
2022/09/02 19:50:47;;;;;;;7.83;4.20;;;24.50;1.00;;;;;;6102400;23;20198;-96
2022/09/02 19:53:35;;;;;;;8.17;3.40;;;24.40;1.00;;;;;;6127328;23;20186;-92
2022/09/02 19:56:07;;;;;;;3.93;3.20;;;24.50;1.00;;;;;;6139813;23;20229;-94
2022/09/02 19:58:54;;;;;;;6.27;4.00;;;24.50;1.00;;;;;;6151145;23;20150;-93
2022/09/02 20:01:35;;;;;;;7.77;3.83;;;24.20;99.90;;;;;;6166504;23;20213;-92
2022/09/02 20:04:05;;;;;;;6.90;3.80;;;24.10;99.90;;;;;;6137472;23;20195;-94
2022/09/02 20:07:08;;;;;;;6.43;4.10;;;23.90;1.00;;;;;;6126964;23;20152;-95
2022/09/02 20:09:41;;;;;;;5.73;3.80;;;23.90;1.00;;;;;;6153064;23;20143;-95
2022/09/02 20:14:45;;;;;;;6.70;4.03;;;24.00;1.00;;;;;;6158322;23;20197;-94
2022/09/02 20:17:19;;;;;;;10.00;4.57;;;24.00;1.00;;;;;;6150531;23;20166;-96
2022/09/02 20:19:49;;;;;;;7.07;4.37;;;24.10;99.90;;;;;;6172942;23;20359;-95
2022/09/02 20:22:17;;;;;;;10.53;4.07;;;24.10;1.00;;;;;;6169093;23;20146;-95
2022/09/02 20:24:45;;;;;;;5.80;3.87;;;24.20;99.90;;;;;;6139000;23;20154;-93
2022/09/02 20:27:24;;;;;;;5.47;4.17;;;24.30;99.90;;;;;;6139510;23;20174;-95
2022/09/02 20:30:04;;;;;;;10.37;6.07;;;24.40;32.00;;;;;;6136296;23;20154;-95
2022/09/02 20:32:58;;;;;;;8.67;4.67;;;24.40;1.00;;;;;;6139197;23;20184;-93
2022/09/02 20:36:12;;;;;;;9.07;3.80;;;24.20;1.00;;;;;;6171211;23;20166;-93
2022/09/02 20:39:24;;;;;;;5.77;3.80;;;24.40;1.00;;;;;;6169387;23;20162;-95
2022/09/02 20:42:36;;;;;;;6.53;4.03;;;24.40;1.00;;;;;;6142005;23;20272;-92
2022/09/02 20:45:24;;;;;;;7.57;3.73;;;24.40;1.00;;;;;;6139799;23;20174;-92
2022/09/02 20:48:05;;;;;;;4.43;3.90;;;24.30;1.00;;;;;;6148310;23;20167;-92
2022/09/02 20:50:47;;;;;;;7.53;4.43;;;24.50;1.00;;;;;;6128766;23;20139;-93
2022/09/02 20:53:55;;;;;;;6.67;5.40;;;24.50;99.90;;;;;;6127607;23;20174;-91
2022/09/02 20:56:58;;;;;;;10.23;6.73;;;24.70;99.90;;;;;;6058480;23;20618;-92
2022/09/02 21:03:18;;;;;;;9.67;6.07;;;24.70;1.00;;;;;;6048912;23;20156;-93
2022/09/02 21:05:55;;;;;;;9.83;6.47;;;24.80;1.00;;;;;;6024636;23;20145;-94
2022/09/02 21:08:34;;;;;;;9.40;5.83;;;24.90;1.00;;;;;;6093790;23;20202;-94
2022/09/02 21:11:33;;;;;;;7.13;4.90;;;24.70;99.90;;;;;;6122129;23;20206;-93
2022/09/02 21:14:41;;;;;;;10.93;5.30;;;24.60;1.00;;;;;;6142974;23;20183;-93
2022/09/02 21:17:40;;;;;;;7.83;5.10;;;24.70;99.90;;;;;;6128796;23;20149;-94
2022/09/02 21:20:38;;;;;;;8.77;5.27;;;24.70;99.90;;;;;;6120950;23;20187;-93
2022/09/02 21:23:52;;;;;;;9.23;4.97;;;24.80;99.90;;;;;;6149019;23;20162;-92
2022/09/02 21:26:54;;;;;;;7.10;4.83;;;24.80;99.90;;;;;;6149138;23;20214;-92
2022/09/02 21:29:56;;;;;;;10.53;5.27;;;24.70;1.00;;;;;;6151065;23;20138;-93
2022/09/02 21:32:28;;;;;;;10.90;5.60;;;24.70;1.00;;;;;;6036087;23;20187;-92
2022/09/02 21:35:02;;;;;;;13.13;6.20;;;24.60;1.00;;;;;;6106024;23;20567;-93
2022/09/02 21:37:38;;;;;;;8.17;4.60;;;24.50;99.90;;;;;;6122171;23;20154;-92
2022/09/02 21:40:10;;;;;;;9.67;4.40;;;24.40;1.00;;;;;;6110401;23;20186;-93
2022/09/02 21:43:45;;;;;;;8.23;3.50;;;24.40;1.00;;;;;;6106906;23;20143;-93
2022/09/02 21:46:56;;;;;;;7.93;3.63;;;24.40;99.90;;;;;;6022156;23;20164;-92
2022/09/02 21:49:46;;;;;;;5.73;4.13;;;24.40;99.90;;;;;;6046381;23;20639;-95
2022/09/02 21:52:46;;;;;;;7.97;4.40;;;24.20;99.90;;;;;;6042205;23;20181;-91
2022/09/02 21:55:30;;;;;;;6.53;3.80;;;24.10;99.90;;;;;;6022417;23;20188;-95
2022/09/02 21:58:11;;;;;;;7.57;4.70;;;23.70;1.00;;;;;;6093915;23;20159;-92
2022/09/02 22:00:44;;;;;;;5.57;4.10;;;23.40;2.00;;;;;;6109292;23;20151;-93
2022/09/02 22:03:20;;;;;;;4.73;3.97;;;23.20;99.90;;;;;;6109191;23;20147;-93
2022/09/02 22:06:26;;;;;;;6.27;4.07;;;23.10;99.90;;;;;;6108266;23;20166;-93
2022/09/02 22:09:15;;;;;;;5.20;3.93;;;23.30;99.90;;;;;;6110264;23;20167;-95
2022/09/02 22:11:44;;;;;;;7.23;4.87;;;23.50;79.80;;;;;;6108643;23;20213;-95
2022/09/02 22:14:48;;;;;;;5.80;4.10;;;23.40;99.90;;;;;;6109374;23;20241;-94
2022/09/02 22:17:42;;;;;;;4.93;4.43;;;23.20;99.90;;;;;;6138396;23;20151;-94
2022/09/02 22:20:46;;;;;;;6.87;4.70;;;23.20;99.90;;;;;;6143699;23;20193;-93
2022/09/02 22:23:22;;;;;;;6.10;4.47;;;23.20;99.90;;;;;;6111777;23;20130;-95
2022/09/02 22:25:53;;;;;;;6.53;4.67;;;23.30;99.90;;;;;;6148952;23;20135;-94
2022/09/02 22:28:44;;;;;;;8.83;4.17;;;23.30;99.90;;;;;;6127258;23;20143;-94
2022/09/02 22:31:14;;;;;;;6.67;4.63;;;23.30;99.90;;;;;;6121323;23;20147;-93
2022/09/02 22:33:54;;;;;;;6.43;4.57;;;23.20;99.90;;;;;;6111391;23;20206;-93
2022/09/02 22:36:55;;;;;;;8.43;4.87;;;23.30;99.90;;;;;;6112013;23;20199;-96
2022/09/02 22:39:51;;;;;;;7.23;4.00;;;23.30;99.90;;;;;;6136757;23;20147;-94
2022/09/02 22:42:35;;;;;;;6.17;4.57;;;23.20;99.90;;;;;;6120912;23;20155;-93
2022/09/02 22:54:06;;;;;;;5.43;4.43;;;23.30;99.90;;;;;;6143132;23;20189;-93
2022/09/02 22:56:55;;;;;;;7.47;4.50;;;23.30;99.90;;;;;;6117817;23;20666;-93
2022/09/02 22:59:50;;;;;;;4.67;4.17;;;23.40;99.90;;;;;;6112353;23;20139;-94
2022/09/02 23:02:49;;;;;;;6.87;4.73;;;23.30;99.90;;;;;;6119517;23;20243;-93
2022/09/02 23:06:07;;;;;;;10.80;4.53;;;23.30;99.90;;;;;;6117149;23;20202;-96
2022/09/02 23:08:36;;;;;;;9.20;5.20;;;23.30;99.90;;;;;;6140038;23;20155;-94
2022/09/02 23:11:11;;;;;;;5.70;4.70;;;23.30;99.90;;;;;;6111199;23;20274;-92
2022/09/02 23:13:37;;;;;;;6.93;5.30;;;23.40;99.90;;;;;;6135890;23;20201;-93
2022/09/02 23:16:14;;;;;;;9.57;6.10;;;23.40;99.90;;;;;;6110431;23;20230;-92
2022/09/02 23:19:01;;;;;;;6.37;5.30;;;23.20;99.90;;;;;;6134256;23;20210;-93
2022/09/02 23:22:00;;;;;;;6.87;5.07;;;23.30;99.90;;;;;;6114135;23;20155;-94
2022/09/02 23:24:58;;;;;;;6.57;5.70;;;23.40;99.90;;;;;;6115781;23;20212;-94